createdAt,value
2018-09-23T00:00:46.462Z,0.00
2018-09-23T00:02:39.383Z,0.00
2018-09-23T00:03:39.384Z,0.00
2018-09-23T00:05:32.295Z,0.00
2018-09-23T00:06:32.306Z,0.00
2018-09-23T00:08:25.221Z,0.00
2018-09-23T00:09:25.234Z,0.00
2018-09-23T00:11:18.135Z,0.00
2018-09-23T00:12:18.154Z,0.00
2018-09-23T00:14:11.064Z,0.00
2018-09-23T00:15:11.075Z,0.00
2018-09-23T00:17:03.977Z,0.00
2018-09-23T00:18:03.995Z,0.00
2018-09-23T00:19:56.906Z,0.00
2018-09-23T00:20:56.917Z,0.00
2018-09-23T00:22:49.820Z,0.00
2018-09-23T00:23:49.839Z,0.00
2018-09-23T00:25:42.756Z,0.00
2018-09-23T00:26:42.785Z,0.00
2018-09-23T00:28:35.692Z,0.00
2018-09-23T00:29:35.689Z,0.00
2018-09-23T00:31:28.586Z,0.00
2018-09-23T00:32:28.607Z,0.00
2018-09-23T00:34:21.524Z,0.00
2018-09-23T00:35:21.534Z,0.00
2018-09-23T00:37:14.439Z,0.00
2018-09-23T00:38:14.473Z,0.00
2018-09-23T00:40:07.368Z,0.00
2018-09-23T00:41:07.426Z,0.00
2018-09-23T00:43:00.284Z,0.00
2018-09-23T00:44:00.311Z,0.00
2018-09-23T00:45:53.214Z,0.00
2018-09-23T00:46:53.225Z,0.00
2018-09-23T00:48:46.324Z,0.00
2018-09-23T00:49:46.337Z,0.00
2018-09-23T00:51:39.256Z,0.00
2018-09-23T00:52:39.263Z,0.00
2018-09-23T00:54:32.177Z,0.00
2018-09-23T00:55:32.223Z,0.00
2018-09-23T00:57:25.092Z,0.00
2018-09-23T00:58:25.110Z,0.00
2018-09-23T01:00:18.021Z,0.00
2018-09-23T01:01:18.032Z,0.00
2018-09-23T01:03:10.934Z,0.00
2018-09-23T01:04:10.953Z,0.00
2018-09-23T01:06:03.868Z,0.00
2018-09-23T01:07:03.875Z,0.00
2018-09-23T01:08:56.782Z,0.00
2018-09-23T01:09:56.802Z,0.00
2018-09-23T01:11:49.716Z,0.00
2018-09-23T01:12:49.725Z,0.00
2018-09-23T01:14:42.638Z,0.00
2018-09-23T01:15:42.650Z,0.00
2018-09-23T01:17:35.550Z,0.00
2018-09-23T01:18:35.570Z,0.00
2018-09-23T01:20:28.482Z,0.00
2018-09-23T01:21:28.494Z,0.00
2018-09-23T01:23:21.397Z,0.00
2018-09-23T01:24:21.414Z,0.00
2018-09-23T01:26:14.337Z,0.00
2018-09-23T01:27:14.338Z,0.00
2018-09-23T01:29:07.245Z,0.00
2018-09-23T01:30:07.261Z,0.00
2018-09-23T01:32:00.173Z,0.00
2018-09-23T01:33:00.184Z,0.00
2018-09-23T01:34:53.090Z,0.00
2018-09-23T01:35:53.106Z,0.00
2018-09-23T01:37:46.024Z,0.00
2018-09-23T01:38:46.026Z,0.00
2018-09-23T01:40:38.942Z,0.00
2018-09-23T01:41:38.951Z,0.00
2018-09-23T01:43:31.849Z,0.00
2018-09-23T01:44:31.870Z,0.00
2018-09-23T01:46:24.785Z,0.00
2018-09-23T01:47:24.794Z,0.00
2018-09-23T01:49:17.692Z,0.00
2018-09-23T01:50:17.708Z,0.00
2018-09-23T01:52:10.755Z,0.00
2018-09-23T01:53:10.634Z,0.00
2018-09-23T01:55:03.536Z,0.00
2018-09-23T01:56:03.556Z,0.00
2018-09-23T01:57:56.469Z,0.00
2018-09-23T01:58:56.477Z,0.00
2018-09-23T02:00:49.383Z,0.00
2018-09-23T02:01:49.403Z,0.00
2018-09-23T02:03:42.312Z,0.00
2018-09-23T02:04:42.337Z,0.00
2018-09-23T02:06:35.237Z,0.00
2018-09-23T02:07:35.240Z,0.00
2018-09-23T02:09:28.150Z,0.00
2018-09-23T02:10:28.157Z,0.00
2018-09-23T02:12:21.074Z,0.00
2018-09-23T02:13:21.086Z,0.00
2018-09-23T02:15:13.992Z,0.00
2018-09-23T02:16:14.021Z,0.00
2018-09-23T02:18:06.922Z,0.00
2018-09-23T02:19:06.931Z,0.00
2018-09-23T02:20:59.846Z,0.00
2018-09-23T02:21:59.866Z,0.00
2018-09-23T02:23:52.778Z,0.00
2018-09-23T02:24:52.786Z,0.00
2018-09-23T02:26:45.690Z,0.00
2018-09-23T02:27:45.705Z,0.00
2018-09-23T02:29:38.618Z,0.00
2018-09-23T02:30:38.628Z,0.00
2018-09-23T02:32:31.539Z,0.00
2018-09-23T02:33:31.550Z,0.00
2018-09-23T02:35:24.453Z,0.00
2018-09-23T02:36:24.471Z,0.00
2018-09-23T02:38:17.383Z,0.00
2018-09-23T02:39:17.398Z,0.00
2018-09-23T02:41:10.293Z,0.00
2018-09-23T02:42:10.311Z,0.00
2018-09-23T02:44:03.225Z,0.00
2018-09-23T02:45:03.233Z,0.00
2018-09-23T02:46:56.137Z,0.00
2018-09-23T02:47:56.157Z,0.00
2018-09-23T02:49:49.067Z,0.00
2018-09-23T02:50:49.075Z,0.00
2018-09-23T02:52:41.994Z,0.00
2018-09-23T02:53:41.997Z,0.00
2018-09-23T02:55:34.900Z,0.00
2018-09-23T02:56:34.918Z,0.00
2018-09-23T02:58:27.833Z,0.00
2018-09-23T02:59:27.841Z,0.00
2018-09-23T03:01:20.753Z,0.00
2018-09-23T03:02:20.763Z,0.00
2018-09-23T03:04:13.676Z,0.00
2018-09-23T03:05:13.685Z,0.00
2018-09-23T03:07:06.585Z,0.00
2018-09-23T03:08:06.603Z,0.00
2018-09-23T03:09:59.516Z,0.00
2018-09-23T03:10:59.522Z,0.00
2018-09-23T03:12:52.433Z,0.00
2018-09-23T03:13:52.449Z,0.00
2018-09-23T03:15:45.366Z,0.00
2018-09-23T03:16:45.368Z,0.00
2018-09-23T03:18:38.280Z,0.00
2018-09-23T03:19:38.288Z,0.00
2018-09-23T03:21:31.193Z,0.00
2018-09-23T03:22:31.211Z,0.00
2018-09-23T03:24:24.123Z,0.00
2018-09-23T03:25:24.132Z,0.00
2018-09-23T03:27:17.035Z,0.00
2018-09-23T03:28:17.053Z,0.00
2018-09-23T03:30:09.967Z,0.00
2018-09-23T03:31:09.976Z,0.00
2018-09-23T03:33:02.874Z,0.00
2018-09-23T03:34:02.895Z,0.00
2018-09-23T03:35:55.804Z,0.00
2018-09-23T03:36:55.813Z,0.00
2018-09-23T03:38:48.720Z,0.00
2018-09-23T03:39:48.737Z,0.00
2018-09-23T03:41:41.648Z,0.00
2018-09-23T03:42:41.656Z,0.00
2018-09-23T03:44:34.579Z,0.00
2018-09-23T03:45:34.578Z,0.00
2018-09-23T03:47:27.482Z,0.00
2018-09-23T03:48:27.500Z,0.00
2018-09-23T03:50:20.406Z,0.00
2018-09-23T03:51:20.422Z,0.00
2018-09-23T03:53:13.323Z,0.00
2018-09-23T03:54:13.343Z,0.00
2018-09-23T03:56:06.259Z,0.00
2018-09-23T03:57:06.267Z,0.00
2018-09-23T03:58:59.187Z,0.00
2018-09-23T03:59:59.192Z,0.00
2018-09-23T04:01:52.104Z,0.00
2018-09-23T04:02:52.111Z,0.00
2018-09-23T04:04:45.015Z,0.00
2018-09-23T04:05:45.032Z,0.00
2018-09-23T04:07:37.944Z,0.00
2018-09-23T04:08:37.953Z,0.00
2018-09-23T04:10:30.862Z,0.00
2018-09-23T04:11:30.872Z,0.00
2018-09-23T04:13:32.798Z,0.00
2018-09-23T04:14:23.792Z,0.00
2018-09-23T04:16:16.705Z,0.00
2018-09-23T04:17:16.717Z,0.00
2018-09-23T04:19:09.612Z,0.00
2018-09-23T04:20:09.701Z,0.00
2018-09-23T04:22:02.547Z,0.00
2018-09-23T04:23:02.564Z,0.00
2018-09-23T04:24:55.458Z,0.00
2018-09-23T04:25:55.489Z,0.00
2018-09-23T04:27:48.385Z,0.00
2018-09-23T04:28:48.387Z,0.00
2018-09-23T04:30:41.320Z,0.00
2018-09-23T04:31:41.305Z,0.00
2018-09-23T04:33:34.214Z,0.00
2018-09-23T04:34:34.231Z,0.00
2018-09-23T04:36:27.143Z,0.00
2018-09-23T04:37:27.156Z,0.00
2018-09-23T04:39:20.056Z,0.00
2018-09-23T04:40:20.071Z,0.00
2018-09-23T04:42:12.984Z,0.00
2018-09-23T04:43:12.991Z,0.00
2018-09-23T04:45:05.905Z,0.00
2018-09-23T04:46:05.911Z,0.00
2018-09-23T04:47:58.843Z,4.00
2018-09-23T04:48:58.851Z,4.00
2018-09-23T04:50:51.758Z,4.00
2018-09-23T04:51:51.773Z,0.00
2018-09-23T04:53:44.685Z,4.00
2018-09-23T04:54:44.692Z,4.00
2018-09-23T04:56:37.610Z,8.00
2018-09-23T04:57:37.613Z,8.00
2018-09-23T04:59:30.517Z,8.00
2018-09-23T05:00:30.530Z,12.00
2018-09-23T05:02:23.441Z,12.00
2018-09-23T05:03:23.452Z,16.00
2018-09-23T05:05:16.356Z,20.00
2018-09-23T05:06:16.381Z,28.00
2018-09-23T05:08:09.284Z,40.00
2018-09-23T05:09:09.292Z,48.00
2018-09-23T05:11:02.195Z,60.00
2018-09-23T05:12:02.212Z,64.00
2018-09-23T05:13:55.125Z,84.00
2018-09-23T05:14:55.137Z,96.00
2018-09-23T05:16:48.044Z,108.00
2018-09-23T05:17:48.056Z,112.00
2018-09-23T05:19:40.965Z,124.00
2018-09-23T05:20:40.975Z,136.00
2018-09-23T05:22:33.886Z,160.00
2018-09-23T05:23:33.897Z,172.00
2018-09-23T05:25:26.798Z,196.00
2018-09-23T05:26:26.812Z,200.00
2018-09-23T05:28:19.734Z,204.00
2018-09-23T05:29:19.736Z,196.00
2018-09-23T05:31:12.637Z,204.00
2018-09-23T05:32:12.657Z,208.00
2018-09-23T05:34:05.563Z,204.00
2018-09-23T05:35:05.573Z,208.00
2018-09-23T05:36:58.475Z,272.00
2018-09-23T05:37:58.492Z,328.00
2018-09-23T05:39:51.406Z,432.00
2018-09-23T05:40:51.418Z,460.00
2018-09-23T05:42:45.310Z,380.00
2018-09-23T05:43:45.332Z,324.00
2018-09-23T05:45:38.241Z,312.00
2018-09-23T05:46:38.249Z,348.00
2018-09-23T05:48:31.162Z,440.00
2018-09-23T05:49:31.171Z,488.00
2018-09-23T05:51:24.076Z,572.00
2018-09-23T05:52:24.111Z,620.00
2018-09-23T05:54:17.003Z,656.00
2018-09-23T05:55:17.008Z,672.00
2018-09-23T05:57:09.917Z,748.00
2018-09-23T05:58:09.928Z,796.00
2018-09-23T06:00:02.848Z,836.00
2018-09-23T06:01:02.862Z,872.00
2018-09-23T06:02:55.759Z,916.00
2018-09-23T06:03:55.785Z,980.00
2018-09-23T06:05:48.687Z,1104.00
2018-09-23T06:06:48.703Z,1120.00
2018-09-23T06:08:41.668Z,1092.00
2018-09-23T06:09:41.615Z,1116.00
2018-09-23T06:11:34.522Z,1148.00
2018-09-23T06:12:34.537Z,1136.00
2018-09-23T06:14:27.455Z,1152.00
2018-09-23T06:15:27.461Z,1192.00
2018-09-23T06:17:20.370Z,1212.00
2018-09-23T06:18:20.419Z,1268.00
2018-09-23T06:20:13.307Z,1452.00
2018-09-23T06:21:13.308Z,1480.00
2018-09-23T06:23:06.214Z,1524.00
2018-09-23T06:24:06.228Z,1556.00
2018-09-23T06:25:59.140Z,1636.00
2018-09-23T06:26:59.150Z,1776.00
2018-09-23T06:28:52.057Z,1712.00
2018-09-23T06:29:52.078Z,1560.00
2018-09-23T06:31:46.008Z,1268.00
2018-09-23T06:32:46.029Z,1200.00
2018-09-23T06:34:38.914Z,1124.00
2018-09-23T06:35:38.937Z,1144.00
2018-09-23T06:37:31.854Z,1320.00
2018-09-23T06:38:31.915Z,1432.00
2018-09-23T06:40:24.787Z,1624.00
2018-09-23T06:41:24.786Z,1696.00
2018-09-23T06:43:17.692Z,1876.00
2018-09-23T06:44:17.716Z,1892.00
2018-09-23T06:46:10.632Z,1856.00
2018-09-23T06:47:10.641Z,1832.00
2018-09-23T06:49:03.542Z,1860.00
2018-09-23T06:50:03.562Z,1796.00
2018-09-23T06:51:56.473Z,1580.00
2018-09-23T06:52:56.487Z,1548.00
2018-09-23T06:54:49.388Z,1720.00
2018-09-23T06:55:49.407Z,1888.00
2018-09-23T06:57:42.322Z,2092.00
2018-09-23T06:58:42.328Z,2112.00
2018-09-23T07:00:35.240Z,2280.00
2018-09-23T07:01:35.251Z,2424.00
2018-09-23T07:03:28.149Z,2400.00
2018-09-23T07:04:28.176Z,2256.00
2018-09-23T07:06:21.079Z,1836.00
2018-09-23T07:07:21.092Z,1892.00
2018-09-23T07:09:13.992Z,2388.00
2018-09-23T07:10:14.011Z,2564.00
2018-09-23T07:12:06.922Z,2616.00
2018-09-23T07:13:06.924Z,2688.00
2018-09-23T07:14:59.832Z,2864.00
2018-09-23T07:15:59.856Z,2816.00
2018-09-23T07:17:52.761Z,2668.00
2018-09-23T07:18:52.792Z,2624.00
2018-09-23T07:20:45.683Z,2812.00
2018-09-23T07:21:45.702Z,3164.00
2018-09-23T07:23:38.640Z,3516.00
2018-09-23T07:24:38.627Z,3408.00
2018-09-23T07:26:31.548Z,3004.00
2018-09-23T07:27:31.542Z,2952.00
2018-09-23T07:29:24.465Z,2884.00
2018-09-23T07:30:24.483Z,2864.00
2018-09-23T07:32:17.395Z,2924.00
2018-09-23T07:33:17.403Z,2884.00
2018-09-23T07:35:10.307Z,2960.00
2018-09-23T07:36:10.325Z,3036.00
2018-09-23T07:38:03.235Z,3236.00
2018-09-23T07:39:03.246Z,3056.00
2018-09-23T07:40:56.153Z,2940.00
2018-09-23T07:41:56.172Z,3124.00
2018-09-23T07:43:49.087Z,3244.00
2018-09-23T07:44:49.100Z,3264.00
2018-09-23T07:46:41.998Z,3872.00
2018-09-23T07:47:42.019Z,3740.00
2018-09-23T07:49:34.933Z,3468.00
2018-09-23T07:50:34.942Z,3552.00
2018-09-23T07:52:27.853Z,3332.00
2018-09-23T07:53:27.863Z,3100.00
2018-09-23T07:55:20.765Z,3200.00
2018-09-23T07:56:20.809Z,3528.00
2018-09-23T07:58:13.698Z,3656.00
2018-09-23T07:59:13.708Z,3584.00
2018-09-23T08:01:06.617Z,3584.00
2018-09-23T08:02:06.635Z,3800.00
2018-09-23T08:03:59.548Z,4352.00
2018-09-23T08:04:59.561Z,4424.00
2018-09-23T08:06:52.461Z,3884.00
2018-09-23T08:07:52.479Z,3708.00
2018-09-23T08:09:45.390Z,3636.00
2018-09-23T08:10:45.399Z,3768.00
2018-09-23T08:12:38.389Z,4104.00
2018-09-23T08:13:38.438Z,4168.00
2018-09-23T08:15:31.233Z,4176.00
2018-09-23T08:16:31.245Z,4036.00
2018-09-23T08:18:24.158Z,3704.00
2018-09-23T08:19:24.321Z,3660.00
2018-09-23T08:21:17.121Z,3704.00
2018-09-23T08:22:17.096Z,4100.00
2018-09-23T08:24:10.011Z,4380.00
2018-09-23T08:25:10.079Z,4404.00
2018-09-23T08:27:02.926Z,4916.00
2018-09-23T08:28:02.945Z,4972.00
2018-09-23T08:29:55.860Z,4664.00
2018-09-23T08:30:55.870Z,4596.00
2018-09-23T08:32:48.807Z,4516.00
2018-09-23T08:33:48.793Z,4392.00
2018-09-23T08:35:41.706Z,4084.00
2018-09-23T08:36:41.715Z,4220.00
2018-09-23T08:38:34.631Z,4492.00
2018-09-23T08:39:34.646Z,4500.00
2018-09-23T08:41:27.560Z,4444.00
2018-09-23T08:42:27.572Z,4628.00
2018-09-23T08:44:20.486Z,4428.00
2018-09-23T08:45:20.497Z,4136.00
2018-09-23T08:47:13.402Z,4804.00
2018-09-23T08:48:13.434Z,4976.00
2018-09-23T08:50:06.334Z,5352.00
2018-09-23T08:51:06.348Z,5836.00
2018-09-23T08:52:59.251Z,5492.00
2018-09-23T08:53:59.271Z,5428.00
2018-09-23T08:55:52.185Z,5232.00
2018-09-23T08:56:52.194Z,5504.00
2018-09-23T08:58:45.107Z,5936.00
2018-09-23T08:59:45.120Z,6092.00
2018-09-23T09:01:38.034Z,6008.00
2018-09-23T09:02:38.046Z,6180.00
2018-09-23T09:04:30.950Z,5624.00
2018-09-23T09:05:30.968Z,5012.00
2018-09-23T09:07:23.890Z,4232.00
2018-09-23T09:08:23.893Z,3856.00
2018-09-23T09:10:16.815Z,3812.00
2018-09-23T09:11:16.822Z,3416.00
2018-09-23T09:13:09.742Z,3976.00
2018-09-23T09:14:09.742Z,3552.00
2018-09-23T09:16:02.677Z,2976.00
2018-09-23T09:17:02.674Z,3700.00
2018-09-23T09:18:55.577Z,3784.00
2018-09-23T09:19:55.596Z,3628.00
2018-09-23T09:21:48.525Z,3040.00
2018-09-23T09:22:48.523Z,2684.00
2018-09-23T09:24:41.430Z,2732.00
2018-09-23T09:25:41.449Z,3524.00
2018-09-23T09:27:34.375Z,3596.00
2018-09-23T09:28:34.384Z,3696.00
2018-09-23T09:30:27.291Z,3756.00
2018-09-23T09:31:27.311Z,3852.00
2018-09-23T09:33:20.224Z,3396.00
2018-09-23T09:34:20.234Z,3440.00
2018-09-23T09:36:13.149Z,2936.00
2018-09-23T09:37:13.158Z,3232.00
2018-09-23T09:39:06.066Z,3840.00
2018-09-23T09:40:06.079Z,3868.00
2018-09-23T09:41:58.997Z,3632.00
2018-09-23T09:42:59.019Z,4016.00
2018-09-23T09:44:51.918Z,5308.00
2018-09-23T09:45:51.935Z,5212.00
2018-09-23T09:47:44.849Z,4688.00
2018-09-23T09:48:44.863Z,4624.00
2018-09-23T09:50:37.777Z,4520.00
2018-09-23T09:51:37.799Z,5288.00
2018-09-23T09:53:30.756Z,5336.00
2018-09-23T09:54:30.717Z,5096.00
2018-09-23T09:56:23.630Z,5216.00
2018-09-23T09:57:23.650Z,5296.00
2018-09-23T09:59:16.558Z,6720.00
2018-09-23T10:00:16.565Z,6052.00
2018-09-23T10:02:09.467Z,3340.00
2018-09-23T10:03:09.488Z,3636.00
2018-09-23T10:05:02.431Z,2464.00
2018-09-23T10:06:02.434Z,2420.00
2018-09-23T10:07:55.348Z,2920.00
2018-09-23T10:08:55.360Z,3596.00
2018-09-23T10:10:48.267Z,3720.00
2018-09-23T10:11:48.284Z,3592.00
2018-09-23T10:13:41.199Z,3428.00
2018-09-23T10:14:41.210Z,3340.00
2018-09-23T10:16:34.114Z,3692.00
2018-09-23T10:17:34.134Z,3988.00
2018-09-23T10:19:27.052Z,4260.00
2018-09-23T10:20:27.080Z,3912.00
2018-09-23T10:22:19.963Z,3444.00
2018-09-23T10:23:20.114Z,3496.00
2018-09-23T10:25:12.894Z,3592.00
2018-09-23T10:26:12.902Z,3904.00
2018-09-23T10:28:05.818Z,3540.00
2018-09-23T10:30:18.794Z,3600.00
2018-09-23T10:31:18.895Z,3456.00
2018-09-23T10:33:11.669Z,3312.00
2018-09-23T10:34:11.692Z,3156.00
2018-09-23T10:36:04.588Z,3236.00
2018-09-23T10:37:04.598Z,3212.00
2018-09-23T10:38:58.609Z,3048.00
2018-09-23T10:39:58.526Z,2904.00
2018-09-23T10:41:51.417Z,2672.00
2018-09-23T10:42:51.431Z,2600.00
2018-09-23T10:44:44.351Z,2652.00
2018-09-23T10:45:44.363Z,2740.00
2018-09-23T10:47:37.269Z,2728.00
2018-09-23T10:48:37.289Z,2716.00
2018-09-23T10:50:30.216Z,2392.00
2018-09-23T10:51:30.207Z,2164.00
2018-09-23T10:53:23.116Z,2076.00
2018-09-23T10:54:23.133Z,2228.00
2018-09-23T10:56:16.044Z,2192.00
2018-09-23T10:57:16.065Z,2196.00
2018-09-23T10:59:08.969Z,2112.00
2018-09-23T11:00:08.997Z,1852.00
2018-09-23T11:02:01.882Z,2028.00
2018-09-23T11:03:01.967Z,2392.00
2018-09-23T11:04:54.957Z,2576.00
2018-09-23T11:05:54.967Z,2520.00
2018-09-23T11:07:47.892Z,2348.00
2018-09-23T11:08:47.898Z,2208.00
2018-09-23T11:10:40.856Z,2064.00
2018-09-23T11:11:40.807Z,2084.00
2018-09-23T11:13:33.712Z,2228.00
2018-09-23T11:14:33.730Z,2344.00
2018-09-23T11:16:26.646Z,2496.00
2018-09-23T11:17:26.656Z,2548.00
2018-09-23T11:19:19.558Z,2696.00
2018-09-23T11:20:19.595Z,2760.00
2018-09-23T11:22:12.492Z,2960.00
2018-09-23T11:23:12.565Z,3040.00
2018-09-23T11:25:06.409Z,3172.00
2018-09-23T11:26:06.406Z,3368.00
2018-09-23T11:27:59.315Z,3760.00
2018-09-23T11:28:59.331Z,3916.00
2018-09-23T11:30:53.413Z,3512.00
2018-09-23T11:31:53.422Z,3240.00
2018-09-23T11:33:46.323Z,2916.00
2018-09-23T11:34:46.337Z,2868.00
2018-09-23T11:36:39.248Z,2824.00
2018-09-23T11:37:39.260Z,2816.00
2018-09-23T11:39:32.159Z,2776.00
2018-09-23T11:40:32.176Z,2928.00
2018-09-23T11:42:25.093Z,3660.00
2018-09-23T11:43:25.199Z,3804.00
2018-09-23T11:45:18.176Z,4024.00
2018-09-23T11:46:18.190Z,4352.00
2018-09-23T11:48:11.103Z,4460.00
2018-09-23T11:49:11.121Z,4220.00
2018-09-23T11:51:04.078Z,4316.00
2018-09-23T11:52:04.057Z,4648.00
2018-09-23T11:53:56.942Z,5508.00
2018-09-23T11:54:56.964Z,5616.00
2018-09-23T11:56:49.870Z,5912.00
2018-09-23T11:57:49.968Z,6204.00
2018-09-23T11:59:42.791Z,6184.00
2018-09-23T12:00:42.806Z,5836.00
2018-09-23T12:02:35.715Z,5308.00
2018-09-23T12:03:35.726Z,5096.00
2018-09-23T12:05:28.631Z,4892.00
2018-09-23T12:06:28.673Z,4672.00
2018-09-23T12:08:21.565Z,3876.00
2018-09-23T12:09:21.577Z,3780.00
2018-09-23T12:11:14.483Z,3772.00
2018-09-23T12:12:14.506Z,3556.00
2018-09-23T12:14:07.423Z,3424.00
2018-09-23T12:15:07.435Z,3316.00
2018-09-23T12:17:00.343Z,3048.00
2018-09-23T12:18:00.354Z,2964.00
2018-09-23T12:19:53.252Z,2844.00
2018-09-23T12:20:53.275Z,2892.00
2018-09-23T12:22:46.187Z,3168.00
2018-09-23T12:23:46.210Z,3452.00
2018-09-23T12:25:39.175Z,3904.00
2018-09-23T12:26:39.114Z,4156.00
2018-09-23T12:28:32.022Z,4616.00
2018-09-23T12:29:32.089Z,4592.00
2018-09-23T12:31:24.944Z,3680.00
2018-09-23T12:32:24.950Z,3448.00
2018-09-23T12:34:17.865Z,3048.00
2018-09-23T12:35:17.868Z,3068.00
2018-09-23T12:37:10.963Z,4044.00
2018-09-23T12:38:10.965Z,4420.00
2018-09-23T12:40:03.890Z,3708.00
2018-09-23T12:41:03.907Z,3472.00
2018-09-23T12:42:56.823Z,3640.00
2018-09-23T12:43:56.835Z,3812.00
2018-09-23T12:45:49.756Z,5148.00
2018-09-23T12:46:49.762Z,5332.00
2018-09-23T12:48:42.671Z,5212.00
2018-09-23T12:49:42.679Z,4760.00
2018-09-23T12:51:35.587Z,3608.00
2018-09-23T12:52:35.603Z,3316.00
2018-09-23T12:54:28.515Z,2632.00
2018-09-23T12:55:28.526Z,2348.00
2018-09-23T12:57:21.427Z,1788.00
2018-09-23T12:58:21.446Z,1756.00
2018-09-23T13:00:14.360Z,1900.00
2018-09-23T13:01:14.369Z,2060.00
2018-09-23T13:03:07.273Z,2140.00
2018-09-23T13:04:07.284Z,2044.00
2018-09-23T13:06:00.210Z,2732.00
2018-09-23T13:07:00.223Z,2920.00
2018-09-23T13:08:53.114Z,2940.00
2018-09-23T13:09:53.121Z,3104.00
2018-09-23T13:11:46.021Z,3916.00
2018-09-23T13:12:46.045Z,3992.00
2018-09-23T13:14:38.957Z,4148.00
2018-09-23T13:15:38.964Z,4732.00
2018-09-23T13:17:31.880Z,5480.00
2018-09-23T13:18:31.890Z,5664.00
2018-09-23T13:20:24.793Z,5872.00
2018-09-23T13:21:24.799Z,5392.00
2018-09-23T13:23:17.909Z,5796.00
2018-09-23T13:24:17.926Z,5736.00
2018-09-23T13:26:10.871Z,5424.00
2018-09-23T13:27:10.934Z,5512.00
2018-09-23T13:29:03.913Z,5744.00
2018-09-23T13:30:03.807Z,5488.00
2018-09-23T13:31:56.709Z,4448.00
2018-09-23T13:32:56.735Z,3476.00
2018-09-23T13:34:49.633Z,3080.00
2018-09-23T13:35:49.649Z,2484.00
2018-09-23T13:37:42.549Z,2516.00
2018-09-23T13:38:42.560Z,2504.00
2018-09-23T13:40:35.673Z,3576.00
2018-09-23T13:41:35.685Z,3636.00
2018-09-23T13:43:29.593Z,4408.00
2018-09-23T13:44:29.608Z,4336.00
2018-09-23T13:46:22.568Z,3728.00
2018-09-23T13:47:22.521Z,3576.00
2018-09-23T13:49:15.432Z,2528.00
2018-09-23T13:50:15.439Z,2336.00
2018-09-23T13:52:08.366Z,3000.00
2018-09-23T13:53:08.359Z,2368.00
2018-09-23T13:55:01.263Z,2904.00
2018-09-23T13:56:01.283Z,3696.00
2018-09-23T13:57:54.185Z,3304.00
2018-09-23T13:58:54.194Z,2800.00
2018-09-23T14:00:47.296Z,3204.00
2018-09-23T14:01:47.318Z,3476.00
2018-09-23T14:03:40.228Z,4064.00
2018-09-23T14:04:40.235Z,3504.00
2018-09-23T14:06:33.157Z,3144.00
2018-09-23T14:07:33.158Z,3360.00
2018-09-23T14:09:26.096Z,3228.00
2018-09-23T14:10:26.078Z,2984.00
2018-09-23T14:12:18.991Z,2356.00
2018-09-23T14:13:19.018Z,2124.00
2018-09-23T14:15:12.096Z,2468.00
2018-09-23T14:16:12.118Z,3060.00
2018-09-23T14:18:06.090Z,2916.00
2018-09-23T14:19:06.097Z,2196.00
2018-09-23T14:20:59.997Z,2120.00
2018-09-23T14:22:00.010Z,2488.00
2018-09-23T14:23:52.929Z,3368.00
2018-09-23T14:24:52.937Z,3896.00
2018-09-23T14:26:45.848Z,4196.00
2018-09-23T14:27:45.856Z,4380.00
2018-09-23T14:29:38.767Z,3600.00
2018-09-23T14:30:38.774Z,3204.00
2018-09-23T14:32:31.683Z,2636.00
2018-09-23T14:33:31.693Z,2292.00
2018-09-23T14:35:24.607Z,2660.00
2018-09-23T14:36:24.658Z,3248.00
2018-09-23T14:38:17.520Z,3024.00
2018-09-23T14:39:17.534Z,3044.00
2018-09-23T14:41:10.430Z,3420.00
2018-09-23T14:42:10.519Z,3496.00
2018-09-23T14:44:03.552Z,3224.00
2018-09-23T14:45:03.409Z,2616.00
2018-09-23T14:46:56.270Z,2432.00
2018-09-23T14:47:56.289Z,2324.00
2018-09-23T14:49:49.220Z,2656.00
2018-09-23T14:50:49.228Z,3156.00
2018-09-23T14:52:42.156Z,4236.00
2018-09-23T14:53:42.219Z,5164.00
2018-09-23T14:55:35.071Z,4868.00
2018-09-23T14:56:35.087Z,4844.00
2018-09-23T14:58:27.998Z,4348.00
2018-09-23T14:59:28.008Z,3688.00
2018-09-23T15:01:20.907Z,2844.00
2018-09-23T15:02:20.924Z,2912.00
2018-09-23T15:04:13.833Z,3368.00
2018-09-23T15:05:13.839Z,3284.00
2018-09-23T15:07:06.742Z,3244.00
2018-09-23T15:08:06.760Z,2932.00
2018-09-23T15:09:59.672Z,2604.00
2018-09-23T15:10:59.679Z,2580.00
2018-09-23T15:12:52.582Z,2564.00
2018-09-23T15:13:52.640Z,1876.00
2018-09-23T15:15:45.515Z,588.00
2018-09-23T15:16:45.529Z,552.00
2018-09-23T15:18:38.421Z,1080.00
2018-09-23T15:19:38.436Z,1244.00
2018-09-23T15:21:31.351Z,1452.00
2018-09-23T15:22:31.354Z,1344.00
2018-09-23T15:24:24.272Z,1492.00
2018-09-23T15:25:24.278Z,1624.00
2018-09-23T15:27:17.185Z,1656.00
2018-09-23T15:28:17.229Z,1672.00
2018-09-23T15:30:10.102Z,1712.00
2018-09-23T15:31:10.110Z,1620.00
2018-09-23T15:33:03.042Z,1528.00
2018-09-23T15:34:03.055Z,1500.00
2018-09-23T15:35:55.988Z,1524.00
2018-09-23T15:36:55.983Z,1620.00
2018-09-23T15:38:48.907Z,1704.00
2018-09-23T15:39:48.906Z,1780.00
2018-09-23T15:41:41.987Z,2044.00
2018-09-23T15:42:41.990Z,2120.00
2018-09-23T15:44:34.906Z,2216.00
2018-09-23T15:45:34.911Z,2296.00
2018-09-23T15:47:28.825Z,2296.00
2018-09-23T15:48:28.842Z,2340.00
2018-09-23T15:50:21.752Z,2348.00
2018-09-23T15:51:21.761Z,2072.00
2018-09-23T15:53:14.666Z,1776.00
2018-09-23T15:54:14.675Z,1948.00
2018-09-23T15:56:07.593Z,2244.00
2018-09-23T15:57:07.598Z,2168.00
2018-09-23T15:59:00.493Z,1908.00
2018-09-23T16:00:00.510Z,1884.00
2018-09-23T16:01:54.416Z,1964.00
2018-09-23T16:02:54.426Z,1968.00
2018-09-23T16:04:47.335Z,1724.00
2018-09-23T16:05:47.343Z,1540.00
2018-09-23T16:07:40.286Z,1348.00
2018-09-23T16:08:40.259Z,1256.00
2018-09-23T16:10:33.169Z,920.00
2018-09-23T16:11:33.185Z,752.00
2018-09-23T16:13:26.077Z,564.00
2018-09-23T16:14:26.104Z,552.00
2018-09-23T16:16:19.003Z,660.00
2018-09-23T16:17:19.011Z,748.00
2018-09-23T16:19:11.958Z,936.00
2018-09-23T16:20:11.930Z,988.00
2018-09-23T16:22:04.849Z,956.00
2018-09-23T16:23:04.855Z,920.00
2018-09-23T16:24:57.837Z,940.00
2018-09-23T16:25:57.828Z,1008.00
2018-09-23T16:27:50.699Z,1296.00
2018-09-23T16:28:50.723Z,1424.00
2018-09-23T16:30:43.650Z,1304.00
2018-09-23T16:31:43.649Z,1180.00
2018-09-23T16:33:36.577Z,988.00
2018-09-23T16:34:36.579Z,912.00
2018-09-23T16:36:29.468Z,844.00
2018-09-23T16:37:29.479Z,836.00
2018-09-23T16:39:22.382Z,808.00
2018-09-23T16:40:22.388Z,748.00
2018-09-23T16:42:15.290Z,696.00
2018-09-23T16:43:22.446Z,688.00
2018-09-23T16:45:08.211Z,576.00
2018-09-23T16:46:08.244Z,560.00
2018-09-23T16:48:01.118Z,652.00
2018-09-23T16:49:01.133Z,648.00
2018-09-23T16:50:54.044Z,700.00
2018-09-23T16:51:54.051Z,708.00
2018-09-23T16:53:46.972Z,644.00
2018-09-23T16:54:47.169Z,608.00
2018-09-23T16:56:39.906Z,528.00
2018-09-23T16:57:39.911Z,496.00
2018-09-23T16:59:32.852Z,468.00
2018-09-23T17:00:32.879Z,456.00
2018-09-23T17:02:25.731Z,420.00
2018-09-23T17:03:25.745Z,400.00
2018-09-23T17:05:18.707Z,360.00
2018-09-23T17:06:18.668Z,332.00
2018-09-23T17:08:11.589Z,276.00
2018-09-23T17:09:11.608Z,248.00
2018-09-23T17:11:04.517Z,228.00
2018-09-23T17:12:04.527Z,216.00
2018-09-23T17:13:57.430Z,192.00
2018-09-23T17:14:57.446Z,176.00
2018-09-23T17:16:51.345Z,152.00
2018-09-23T17:17:51.354Z,144.00
2018-09-23T17:19:44.264Z,120.00
2018-09-23T17:20:44.276Z,100.00
2018-09-23T17:22:37.197Z,84.00
2018-09-23T17:23:37.192Z,84.00
2018-09-23T17:25:30.112Z,80.00
2018-09-23T17:26:30.115Z,76.00
2018-09-23T17:28:23.124Z,60.00
2018-09-23T17:29:23.036Z,56.00
2018-09-23T17:31:15.946Z,44.00
2018-09-23T17:32:15.975Z,36.00
2018-09-23T17:34:08.858Z,32.00
2018-09-23T17:35:08.962Z,28.00
2018-09-23T17:37:01.792Z,24.00
2018-09-23T17:38:01.794Z,20.00
2018-09-23T17:39:54.700Z,12.00
2018-09-23T17:40:54.745Z,12.00
2018-09-23T17:42:47.626Z,8.00
2018-09-23T17:43:47.633Z,8.00
2018-09-23T17:45:40.542Z,4.00
2018-09-23T17:46:40.561Z,4.00
2018-09-23T17:48:33.543Z,0.00
2018-09-23T17:49:33.476Z,4.00
2018-09-23T17:51:26.407Z,0.00
2018-09-23T17:52:26.390Z,0.00
2018-09-23T17:54:19.299Z,0.00
2018-09-23T17:55:19.314Z,0.00
2018-09-23T17:57:12.224Z,0.00
2018-09-23T17:58:12.234Z,0.00
2018-09-23T18:00:06.139Z,0.00
2018-09-23T18:01:06.153Z,0.00
2018-09-23T18:02:59.065Z,0.00